Time;durP1;ratioP1;P1;durP2;ratioP2;P2;SDS_P1;SDS_P2;PMS_P1;PMS_P2;Temp;Humidity;BMP_temperature;BMP_pressure;BME280_temperature;BME280_humidity;BME280_pressure;Samples;Min_cycle;Max_cycle;Signal;HPM_P1;HPM_P2
2023/07/22 00:02:23;;;;;;;5.97;5.30;;;17.50;90.90;;;;;;5037339;28;20472;-86
2023/07/22 00:04:53;;;;;;;7.75;5.30;;;17.40;90.90;;;;;;5035471;28;20136;-86
2023/07/22 00:07:18;;;;;;;6.65;5.43;;;17.40;91.00;;;;;;5035956;28;20025;-86
2023/07/22 00:09:44;;;;;;;6.15;5.28;;;17.30;90.90;;;;;;5035358;28;20017;-86
2023/07/22 00:12:10;;;;;;;6.15;5.55;;;17.30;91.00;;;;;;5019353;28;20497;-86
2023/07/22 00:14:41;;;;;;;9.05;6.25;;;17.20;91.10;;;;;;5035739;28;20495;-87
2023/07/22 00:17:07;;;;;;;6.35;5.57;;;17.20;91.30;;;;;;5036257;28;20017;-87
2023/07/22 00:19:33;;;;;;;9.38;5.82;;;17.20;91.40;;;;;;5035720;28;20029;-86
2023/07/22 00:21:59;;;;;;;7.22;5.82;;;17.20;91.50;;;;;;5036684;28;20029;-86
2023/07/22 00:24:25;;;;;;;8.35;6.20;;;17.20;91.60;;;;;;5019254;28;20496;-86
2023/07/22 00:26:51;;;;;;;10.55;6.45;;;17.10;91.60;;;;;;5035491;28;20482;-85
2023/07/22 00:29:16;;;;;;;7.97;6.25;;;17.10;91.70;;;;;;5035040;28;20032;-86
2023/07/22 00:31:43;;;;;;;8.55;6.25;;;17.10;91.70;;;;;;5035770;28;20091;-86
2023/07/22 00:34:09;;;;;;;8.70;6.65;;;17.00;91.70;;;;;;5018558;28;20029;-86
2023/07/22 00:36:34;;;;;;;8.68;6.45;;;17.00;91.70;;;;;;5018843;28;20377;-86
2023/07/22 00:39:01;;;;;;;7.22;6.25;;;17.00;92.00;;;;;;5035192;28;20029;-86
2023/07/22 00:41:27;;;;;;;8.57;6.25;;;17.00;91.80;;;;;;5035132;28;20030;-86
2023/07/22 00:43:52;;;;;;;8.88;6.38;;;16.90;91.90;;;;;;5018442;28;20485;-85
2023/07/22 00:46:18;;;;;;;8.00;6.28;;;16.90;91.90;;;;;;5018492;28;20060;-87
2023/07/22 00:48:44;;;;;;;7.95;6.22;;;16.80;92.00;;;;;;5034980;28;20029;-86
2023/07/22 00:51:10;;;;;;;8.98;6.72;;;16.80;92.10;;;;;;5034761;28;20454;-86
2023/07/22 00:53:35;;;;;;;10.15;7.00;;;16.80;92.10;;;;;;5018367;28;20036;-86
2023/07/22 00:56:01;;;;;;;9.18;6.95;;;16.80;92.20;;;;;;5018292;28;20029;-86
2023/07/22 00:58:27;;;;;;;11.27;7.65;;;16.70;92.20;;;;;;5018539;28;20416;-86
2023/07/22 01:00:52;;;;;;;9.00;7.32;;;16.70;92.20;;;;;;5034672;28;20025;-85
2023/07/22 01:03:18;;;;;;;8.13;6.75;;;16.70;92.30;;;;;;5035371;28;20025;-86
2023/07/22 01:05:47;;;;;;;8.68;7.40;;;16.70;92.40;;;;;;5035252;28;20022;-86
2023/07/22 01:08:13;;;;;;;9.55;7.60;;;16.70;92.50;;;;;;5036071;28;20022;-86
2023/07/22 01:10:40;;;;;;;10.27;7.90;;;16.70;92.50;;;;;;5018588;28;20548;-86
2023/07/22 01:13:05;;;;;;;10.73;8.02;;;16.70;92.50;;;;;;5036102;28;20487;-86
2023/07/22 01:15:32;;;;;;;9.98;7.93;;;16.80;92.60;;;;;;5036075;28;20092;-86
2023/07/22 01:18:01;;;;;;;9.38;7.55;;;16.70;92.70;;;;;;5018240;28;20091;-85
2023/07/22 01:20:31;;;;;;;11.68;9.10;;;16.80;92.80;;;;;;5019107;28;20038;-86
2023/07/22 01:22:57;;;;;;;13.80;9.97;;;16.80;92.80;;;;;;5018576;28;20381;-86
2023/07/22 01:25:23;;;;;;;12.45;9.05;;;16.80;93.10;;;;;;5046141;28;20018;-87
2023/07/22 01:27:51;;;;;;;11.52;9.45;;;16.80;93.00;;;;;;5059286;28;20006;-86
2023/07/22 01:30:17;;;;;;;11.90;9.10;;;16.80;93.00;;;;;;5059260;28;20026;-85
2023/07/22 01:32:44;;;;;;;12.80;9.85;;;16.80;93.10;;;;;;5059362;28;20032;-85
2023/07/22 01:35:09;;;;;;;12.55;9.85;;;16.80;93.20;;;;;;5057668;28;20025;-84
2023/07/22 01:37:35;;;;;;;12.48;9.73;;;16.80;93.20;;;;;;5035169;28;20381;-86
2023/07/22 01:40:11;;;;;;;12.10;9.43;;;16.80;93.30;;;;;;5033986;28;20168;-85
2023/07/22 01:42:40;;;;;;;14.13;10.30;;;16.90;93.40;;;;;;5035478;28;20484;-85
2023/07/22 01:45:10;;;;;;;12.23;9.95;;;16.90;93.40;;;;;;5037384;28;20484;-86
2023/07/22 01:47:36;;;;;;;13.30;10.20;;;16.90;93.40;;;;;;5037289;28;20361;-85
2023/07/22 01:50:09;;;;;;;11.70;9.38;;;16.90;93.50;;;;;;5037141;28;20029;-86
2023/07/22 01:52:35;;;;;;;13.10;9.80;;;16.90;93.50;;;;;;5054779;28;20493;-86
2023/07/22 01:55:05;;;;;;;12.05;9.90;;;16.90;93.50;;;;;;5054668;28;20027;-86
2023/07/22 01:57:31;;;;;;;13.05;10.23;;;16.90;93.50;;;;;;5037791;28;20021;-86
2023/07/22 01:59:56;;;;;;;13.93;10.38;;;16.90;93.50;;;;;;5020626;28;20036;-86
2023/07/22 02:02:22;;;;;;;12.40;10.20;;;16.90;93.50;;;;;;5036887;28;20036;-85
2023/07/22 02:04:48;;;;;;;14.07;10.70;;;16.90;93.50;;;;;;5020443;28;20507;-86
2023/07/22 02:07:14;;;;;;;13.10;10.38;;;16.90;93.50;;;;;;5020298;28;20036;-85
2023/07/22 02:09:40;;;;;;;12.73;10.35;;;16.90;93.40;;;;;;5037158;28;20362;-85
2023/07/22 02:12:07;;;;;;;15.15;10.05;;;16.90;93.40;;;;;;5036737;28;20027;-86
2023/07/22 02:14:33;;;;;;;13.88;11.73;;;16.90;93.40;;;;;;5036871;28;20025;-85
2023/07/22 02:16:58;;;;;;;14.32;11.38;;;16.90;93.40;;;;;;5020332;28;20029;-85
2023/07/22 02:19:24;;;;;;;13.63;11.57;;;16.80;93.40;;;;;;5036775;28;20021;-86
2023/07/22 02:21:50;;;;;;;12.07;10.25;;;16.80;93.40;;;;;;5020539;28;20066;-85
2023/07/22 02:24:16;;;;;;;13.75;10.57;;;16.80;93.40;;;;;;5036437;28;20043;-86
2023/07/22 02:26:41;;;;;;;12.95;10.18;;;16.70;93.40;;;;;;5054475;28;20053;-85
2023/07/22 02:29:07;;;;;;;13.07;10.88;;;16.70;93.40;;;;;;5020217;28;20029;-85
2023/07/22 02:31:33;;;;;;;13.10;10.40;;;16.70;93.50;;;;;;5036718;28;20021;-85
2023/07/22 02:33:59;;;;;;;15.48;11.10;;;16.70;93.50;;;;;;5019839;28;20491;-86
2023/07/22 02:36:25;;;;;;;13.55;11.13;;;16.70;93.50;;;;;;5053834;28;20036;-86
2023/07/22 02:38:50;;;;;;;13.95;11.38;;;16.70;93.60;;;;;;5054407;28;20025;-85
2023/07/22 02:41:16;;;;;;;13.75;10.43;;;16.70;93.60;;;;;;5036172;28;20028;-86
2023/07/22 02:43:42;;;;;;;13.73;11.13;;;16.60;93.60;;;;;;5019431;28;20519;-86
2023/07/22 02:46:09;;;;;;;14.50;11.48;;;16.60;93.60;;;;;;5019733;28;20032;-86
2023/07/22 02:48:34;;;;;;;14.48;11.35;;;16.60;93.60;;;;;;5019903;28;20025;-87
2023/07/22 02:51:05;;;;;;;15.10;11.52;;;16.60;93.60;;;;;;5019007;28;20033;-86
2023/07/22 02:53:31;;;;;;;12.90;10.23;;;16.60;93.70;;;;;;5019802;28;20060;-86
2023/07/22 02:55:57;;;;;;;13.65;11.05;;;16.60;93.70;;;;;;5036255;28;20057;-86
2023/07/22 02:58:23;;;;;;;17.00;12.15;;;16.50;93.70;;;;;;5019568;28;20134;-85
2023/07/22 03:00:48;;;;;;;13.93;11.02;;;16.50;93.70;;;;;;5036256;28;20025;-86
2023/07/22 03:03:14;;;;;;;15.60;11.35;;;16.50;93.70;;;;;;5019891;28;20039;-86
2023/07/22 03:05:40;;;;;;;14.00;11.68;;;16.50;93.80;;;;;;5036472;28;20473;-86
2023/07/22 03:08:06;;;;;;;13.63;10.70;;;16.40;93.80;;;;;;5020454;28;20075;-86
2023/07/22 03:10:32;;;;;;;15.65;10.90;;;16.40;93.80;;;;;;5055222;28;20029;-86
2023/07/22 03:12:59;;;;;;;15.23;11.93;;;16.40;93.90;;;;;;5055580;28;20043;-85
2023/07/22 03:15:28;;;;;;;15.45;11.63;;;16.40;93.90;;;;;;5060719;28;20047;-85
2023/07/22 03:17:55;;;;;;;15.70;11.70;;;16.40;93.90;;;;;;5060659;28;20036;-85
2023/07/22 03:20:22;;;;;;;13.98;11.30;;;16.40;93.90;;;;;;5043413;28;20013;-85
2023/07/22 03:22:48;;;;;;;16.33;11.73;;;16.30;93.90;;;;;;5072075;28;20160;-86
2023/07/22 03:25:16;;;;;;;16.60;12.32;;;16.30;93.90;;;;;;5036608;28;20079;-85
2023/07/22 03:27:44;;;;;;;14.00;11.50;;;16.30;93.90;;;;;;5036519;28;20075;-86
2023/07/22 03:30:15;;;;;;;15.80;12.07;;;16.30;94.00;;;;;;5036331;28;20112;-84
2023/07/22 03:32:42;;;;;;;15.43;11.60;;;16.20;94.00;;;;;;5054098;28;20028;-86
2023/07/22 03:35:11;;;;;;;14.98;11.70;;;16.30;94.00;;;;;;5035907;28;20021;-85
2023/07/22 03:37:38;;;;;;;16.70;12.20;;;16.20;94.10;;;;;;5053473;28;20028;-86
2023/07/22 03:42:59;;;;;;;15.70;12.20;;;16.20;94.20;;;;;;5026965;28;20468;-86
2023/07/22 03:45:25;;;;;;;16.00;11.55;;;16.20;94.20;;;;;;5053318;28;20040;-87
2023/07/22 03:47:52;;;;;;;15.60;11.43;;;16.20;94.20;;;;;;5018719;28;20087;-86
2023/07/22 03:50:18;;;;;;;15.07;11.77;;;16.20;94.20;;;;;;5035365;28;20029;-86
2023/07/22 03:52:44;;;;;;;16.67;11.85;;;16.20;94.20;;;;;;5035839;28;20120;-86
2023/07/22 03:55:10;;;;;;;15.45;12.57;;;16.20;94.20;;;;;;5053660;28;20061;-86
2023/07/22 03:57:36;;;;;;;15.38;11.82;;;16.10;94.30;;;;;;5035650;28;20116;-86
2023/07/22 04:00:04;;;;;;;15.57;11.82;;;16.10;94.20;;;;;;5035550;28;20115;-86
2023/07/22 04:02:29;;;;;;;16.27;11.82;;;16.10;94.30;;;;;;5020168;28;20421;-86
2023/07/22 04:04:55;;;;;;;18.60;12.52;;;16.10;94.40;;;;;;5056927;28;20128;-86
2023/07/22 04:07:21;;;;;;;16.83;12.50;;;16.10;94.40;;;;;;5039405;28;20021;-85
2023/07/22 04:09:48;;;;;;;17.02;12.50;;;16.10;94.50;;;;;;5022506;28;20021;-86
2023/07/22 04:12:14;;;;;;;17.15;12.02;;;16.10;94.50;;;;;;5038862;28;20028;-86
2023/07/22 04:14:40;;;;;;;19.50;13.23;;;16.10;94.60;;;;;;5056692;28;20082;-85
2023/07/22 04:17:06;;;;;;;16.38;12.50;;;16.20;94.70;;;;;;5022261;28;20094;-86
2023/07/22 04:19:32;;;;;;;18.05;12.82;;;16.20;94.70;;;;;;5022326;28;20029;-85
2023/07/22 04:21:57;;;;;;;17.02;12.60;;;16.20;94.80;;;;;;5038978;28;20484;-86
2023/07/22 04:24:25;;;;;;;15.93;12.40;;;16.20;94.80;;;;;;5022166;28;20044;-86
2023/07/22 04:26:51;;;;;;;15.55;11.70;;;16.30;94.80;;;;;;5039303;28;20029;-86
2023/07/22 04:29:16;;;;;;;18.55;14.25;;;16.30;94.80;;;;;;5038632;28;20025;-86
2023/07/22 04:31:42;;;;;;;20.80;16.58;;;16.30;94.80;;;;;;5021863;28;20120;-85
2023/07/22 04:34:09;;;;;;;19.23;16.33;;;16.30;94.90;;;;;;5022300;28;20064;-86
2023/07/22 04:36:36;;;;;;;19.17;15.95;;;16.40;95.00;;;;;;5038486;28;20112;-85
2023/07/22 04:39:04;;;;;;;20.17;17.35;;;16.40;95.00;;;;;;5038868;28;20083;-86
2023/07/22 04:41:30;;;;;;;19.02;15.68;;;16.40;95.00;;;;;;5038530;28;20025;-86
2023/07/22 04:43:58;;;;;;;19.20;13.48;;;16.50;95.00;;;;;;5021668;28;20095;-86
2023/07/22 04:46:24;;;;;;;18.02;14.65;;;16.50;95.00;;;;;;5022395;28;20060;-87
2023/07/22 04:48:49;;;;;;;20.63;15.90;;;16.50;95.00;;;;;;5022110;28;20025;-86
2023/07/22 04:51:15;;;;;;;19.42;16.65;;;16.60;95.10;;;;;;5038626;28;20083;-85
2023/07/22 04:53:41;;;;;;;20.77;17.40;;;16.60;95.10;;;;;;5022338;28;20119;-86
2023/07/22 04:56:06;;;;;;;21.83;19.50;;;16.60;95.10;;;;;;5056921;28;20116;-86
2023/07/22 04:58:32;;;;;;;23.00;20.40;;;16.70;95.10;;;;;;5038781;28;20120;-86
2023/07/22 05:00:58;;;;;;;22.90;20.65;;;16.70;95.00;;;;;;5023398;28;20029;-87
2023/07/22 05:03:26;;;;;;;23.95;21.35;;;16.80;95.00;;;;;;5079218;28;20016;-84
2023/07/22 05:05:52;;;;;;;22.60;20.35;;;16.80;95.00;;;;;;5063341;28;20024;-85
2023/07/22 05:08:18;;;;;;;21.55;19.40;;;16.80;94.90;;;;;;5057039;28;20456;-86
2023/07/22 05:10:43;;;;;;;20.83;18.77;;;16.90;95.00;;;;;;5056408;28;20070;-86
2023/07/22 05:13:09;;;;;;;20.83;18.73;;;16.90;94.90;;;;;;5038424;28;20029;-87
2023/07/22 05:15:37;;;;;;;21.05;18.20;;;16.90;94.90;;;;;;5021169;28;20049;-85
2023/07/22 05:18:03;;;;;;;19.20;17.20;;;17.00;94.80;;;;;;5056050;28;20104;-85
2023/07/22 05:20:29;;;;;;;20.63;18.00;;;17.10;94.90;;;;;;5038155;28;20064;-86
2023/07/22 05:22:55;;;;;;;19.73;17.63;;;17.10;94.80;;;;;;5056182;28;20457;-86
2023/07/22 05:25:20;;;;;;;21.05;17.10;;;17.10;94.70;;;;;;5037789;28;20041;-86
2023/07/22 05:27:46;;;;;;;20.13;17.92;;;17.10;94.70;;;;;;5037738;28;20036;-86
2023/07/22 05:30:19;;;;;;;19.95;17.45;;;17.20;94.70;;;;;;5020896;28;20064;-85
2023/07/22 05:32:45;;;;;;;20.77;17.80;;;17.20;94.70;;;;;;5019963;28;20031;-85
2023/07/22 05:35:10;;;;;;;21.80;17.33;;;17.20;94.60;;;;;;5020683;28;20123;-85
2023/07/22 05:37:36;;;;;;;19.98;17.67;;;17.30;94.60;;;;;;5037086;28;20029;-85
2023/07/22 05:40:02;;;;;;;19.20;16.60;;;17.40;94.60;;;;;;5037223;28;20400;-85
2023/07/22 05:42:28;;;;;;;19.77;17.52;;;17.40;94.60;;;;;;5036650;28;20071;-85
2023/07/22 05:44:58;;;;;;;19.80;17.77;;;17.40;94.60;;;;;;5054448;28;20122;-85
2023/07/22 05:47:24;;;;;;;19.20;17.17;;;17.40;94.50;;;;;;5020453;28;20044;-84
2023/07/22 05:49:49;;;;;;;19.08;17.10;;;17.40;94.50;;;;;;5036973;28;20029;-84
2023/07/22 05:52:15;;;;;;;18.85;16.88;;;17.50;94.50;;;;;;5020188;28;20021;-84
2023/07/22 05:54:41;;;;;;;19.38;17.27;;;17.50;94.50;;;;;;5036437;28;20055;-84
2023/07/22 05:57:06;;;;;;;18.40;16.50;;;17.60;94.50;;;;;;5036662;28;20056;-85
2023/07/22 05:59:32;;;;;;;20.25;18.15;;;17.60;94.40;;;;;;5036540;28;20031;-85
2023/07/22 06:01:58;;;;;;;18.23;16.42;;;17.60;94.40;;;;;;5036430;28;20063;-85
2023/07/22 06:04:23;;;;;;;19.08;16.35;;;17.60;94.40;;;;;;5036417;28;20041;-84
2023/07/22 06:06:49;;;;;;;19.50;16.33;;;17.70;94.30;;;;;;5054199;28;20111;-84
2023/07/22 06:09:15;;;;;;;18.30;15.93;;;17.70;94.30;;;;;;5019919;28;20033;-85
2023/07/22 06:11:40;;;;;;;21.90;16.92;;;17.70;94.20;;;;;;5036602;28;20406;-84
2023/07/22 06:14:08;;;;;;;17.42;15.25;;;17.80;94.20;;;;;;5054358;28;20040;-85
2023/07/22 06:16:33;;;;;;;18.20;16.00;;;17.80;94.30;;;;;;5036964;28;20021;-85
2023/07/22 06:18:59;;;;;;;16.65;14.95;;;17.90;94.20;;;;;;5020126;28;20036;-84
2023/07/22 06:21:24;;;;;;;19.83;16.15;;;17.90;94.20;;;;;;5020037;28;20052;-84
2023/07/22 06:23:53;;;;;;;19.48;15.35;;;18.00;94.20;;;;;;5020073;28;20029;-84
2023/07/22 06:26:19;;;;;;;20.27;15.20;;;18.10;94.20;;;;;;5019829;28;20362;-84
2023/07/22 06:28:44;;;;;;;17.83;15.18;;;18.10;94.10;;;;;;5036544;28;20017;-85
2023/07/22 06:31:10;;;;;;;17.98;15.43;;;18.10;94.00;;;;;;5020350;28;20120;-84
2023/07/22 06:33:36;;;;;;;19.50;16.65;;;18.10;94.00;;;;;;5019974;28;20472;-85
2023/07/22 06:36:02;;;;;;;19.02;16.45;;;18.10;94.00;;;;;;5036554;28;20037;-85
2023/07/22 06:38:27;;;;;;;18.15;15.75;;;18.20;94.00;;;;;;5020362;28;20427;-85
2023/07/22 06:40:53;;;;;;;19.30;16.85;;;18.30;94.00;;;;;;5036517;28;20063;-85
2023/07/22 06:43:19;;;;;;;17.45;15.68;;;18.30;93.90;;;;;;5054953;28;20119;-85
2023/07/22 06:45:45;;;;;;;19.88;15.35;;;18.30;93.90;;;;;;5021684;28;20044;-84
2023/07/22 06:48:10;;;;;;;18.00;16.15;;;18.40;93.90;;;;;;5049366;28;20078;-85
2023/07/22 06:50:36;;;;;;;21.17;16.33;;;18.50;93.90;;;;;;5046901;28;20052;-84
2023/07/22 06:53:02;;;;;;;19.80;16.85;;;18.50;93.80;;;;;;5054543;28;20049;-84
2023/07/22 06:55:27;;;;;;;19.48;17.13;;;18.60;93.80;;;;;;5043173;28;20030;-83
2023/07/22 06:57:56;;;;;;;19.50;17.58;;;18.70;93.80;;;;;;5049755;28;20036;-85
2023/07/22 07:00:21;;;;;;;19.05;17.02;;;18.70;93.80;;;;;;5036857;28;20025;-85
2023/07/22 07:02:47;;;;;;;18.02;16.15;;;18.80;93.80;;;;;;5036187;28;20029;-85
2023/07/22 07:05:13;;;;;;;18.77;16.88;;;18.90;93.80;;;;;;5019534;28;20041;-85
2023/07/22 07:07:40;;;;;;;18.90;17.05;;;19.00;93.70;;;;;;5019441;28;20025;-85
2023/07/22 07:10:07;;;;;;;16.70;14.85;;;19.00;93.70;;;;;;5036281;28;20046;-85
2023/07/22 07:12:32;;;;;;;18.90;16.80;;;19.10;93.60;;;;;;5019491;28;20029;-85
2023/07/22 07:14:58;;;;;;;18.60;14.48;;;19.10;93.50;;;;;;5019174;28;20171;-85
2023/07/22 07:17:24;;;;;;;15.85;13.27;;;19.20;93.50;;;;;;5036193;28;20075;-85
2023/07/22 07:19:50;;;;;;;15.50;13.98;;;19.20;93.50;;;;;;5035670;28;20437;-85
2023/07/22 07:22:16;;;;;;;16.00;13.93;;;19.20;93.60;;;;;;5035253;28;20116;-85
2023/07/22 07:24:41;;;;;;;13.82;12.25;;;19.20;93.50;;;;;;5018019;28;20083;-84
2023/07/22 07:27:07;;;;;;;15.48;13.35;;;19.30;93.50;;;;;;5018549;28;20045;-84
2023/07/22 07:29:33;;;;;;;14.02;12.63;;;19.40;93.60;;;;;;5034369;28;20029;-89
2023/07/22 07:31:58;;;;;;;15.43;12.52;;;19.50;93.50;;;;;;5017716;28;20487;-84
2023/07/22 07:34:24;;;;;;;14.07;11.93;;;19.50;93.40;;;;;;5034417;28;20040;-84
2023/07/22 07:36:50;;;;;;;15.50;11.48;;;19.60;93.40;;;;;;5017804;28;20108;-85
2023/07/22 07:39:15;;;;;;;13.85;12.00;;;19.70;93.30;;;;;;5055950;28;20029;-84
2023/07/22 07:41:41;;;;;;;14.65;12.02;;;19.70;93.20;;;;;;5025021;28;20465;-84
2023/07/22 07:44:07;;;;;;;13.52;11.25;;;19.80;93.10;;;;;;5041602;28;20128;-85
2023/07/22 07:46:32;;;;;;;13.57;11.40;;;19.90;93.10;;;;;;5041020;28;20060;-84
2023/07/22 07:49:03;;;;;;;13.55;12.07;;;19.90;93.00;;;;;;5059389;28;20025;-85
2023/07/22 07:51:29;;;;;;;;;;;20.00;93.00;;;;;;5024949;28;20422;-85
2023/07/22 07:53:56;;;;;;;12.63;11.10;;;20.10;92.90;;;;;;5040155;28;19905;-85
2023/07/22 07:56:22;;;;;;;14.43;11.48;;;20.10;92.90;;;;;;5043791;28;20036;-85
2023/07/22 07:58:50;;;;;;;12.18;10.68;;;20.10;92.70;;;;;;5024866;28;20025;-86
2023/07/22 08:01:16;;;;;;;13.23;11.70;;;20.20;92.60;;;;;;5041719;28;20039;-85
2023/07/22 08:03:43;;;;;;;12.75;11.45;;;20.20;92.60;;;;;;5024164;28;20099;-85
2023/07/22 08:06:12;;;;;;;12.45;10.55;;;20.20;92.60;;;;;;5040868;28;20025;-85
2023/07/22 08:08:38;;;;;;;13.80;10.35;;;20.30;92.40;;;;;;5058797;28;20523;-85
2023/07/22 08:11:04;;;;;;;12.60;11.02;;;20.40;92.30;;;;;;5039908;28;20033;-85
2023/07/22 08:13:31;;;;;;;11.38;10.27;;;20.40;92.20;;;;;;5058238;28;20052;-86
2023/07/22 08:16:08;;;;;;;11.95;10.75;;;20.40;92.10;;;;;;5058000;28;20538;-85
2023/07/22 08:18:34;;;;;;;12.90;10.02;;;20.50;92.10;;;;;;5040562;28;20021;-85
2023/07/22 08:21:02;;;;;;;11.77;10.50;;;20.50;92.10;;;;;;5040568;28;20397;-85
2023/07/22 08:23:28;;;;;;;13.70;11.90;;;20.50;91.90;;;;;;5040630;28;20046;-85
2023/07/22 08:25:54;;;;;;;13.85;12.45;;;20.60;91.70;;;;;;5057987;28;20048;-85
2023/07/22 08:28:19;;;;;;;11.90;10.60;;;20.60;91.60;;;;;;5040521;28;20071;-85
2023/07/22 08:30:45;;;;;;;11.82;10.45;;;20.60;91.50;;;;;;5057869;28;20057;-85
2023/07/22 08:33:12;;;;;;;11.68;10.48;;;20.60;91.50;;;;;;5040578;28;20025;-85
2023/07/22 08:35:39;;;;;;;11.43;10.05;;;20.70;91.50;;;;;;5041216;28;20029;-85
2023/07/22 08:38:05;;;;;;;11.65;10.55;;;20.70;91.50;;;;;;5042059;28;20025;-85
2023/07/22 08:40:35;;;;;;;11.45;10.25;;;20.70;91.40;;;;;;5052105;28;20051;-86
2023/07/22 08:43:02;;;;;;;12.20;11.00;;;20.80;91.50;;;;;;5046122;28;20109;-83
2023/07/22 08:45:32;;;;;;;11.25;9.98;;;20.80;91.40;;;;;;5063073;28;20029;-83
2023/07/22 08:47:59;;;;;;;12.65;11.05;;;20.80;91.30;;;;;;5079744;28;20089;-85
2023/07/22 08:50:30;;;;;;;11.45;10.32;;;20.90;91.30;;;;;;5057817;28;20029;-85
2023/07/22 08:52:59;;;;;;;12.15;10.93;;;20.90;91.30;;;;;;5043681;28;20032;-84
2023/07/22 08:55:25;;;;;;;11.57;10.48;;;20.90;91.10;;;;;;5024386;28;20518;-85
2023/07/22 08:57:52;;;;;;;11.23;10.10;;;21.00;91.10;;;;;;5040474;28;20025;-86
2023/07/22 09:00:18;;;;;;;12.27;11.07;;;21.00;91.00;;;;;;5040118;28;20025;-85
2023/07/22 09:02:45;;;;;;;11.63;10.45;;;21.00;91.00;;;;;;5023563;28;20435;-85
2023/07/22 09:05:11;;;;;;;11.43;10.30;;;21.10;91.00;;;;;;5039406;28;20033;-85
2023/07/22 09:07:38;;;;;;;11.05;9.68;;;21.10;91.00;;;;;;5039023;28;20095;-85
2023/07/22 09:10:07;;;;;;;10.57;9.68;;;21.20;90.80;;;;;;5039485;28;20025;-86
2023/07/22 09:12:39;;;;;;;10.52;9.43;;;21.20;91.00;;;;;;5039519;28;20025;-86
2023/07/22 09:15:15;;;;;;;10.68;9.63;;;21.20;90.60;;;;;;5024164;28;20037;-86
2023/07/22 09:17:41;;;;;;;10.65;9.65;;;21.20;90.50;;;;;;5039627;28;20071;-86
2023/07/22 09:20:07;;;;;;;10.48;9.45;;;21.10;90.40;;;;;;5056819;28;20469;-85
2023/07/22 09:22:34;;;;;;;10.27;9.35;;;21.20;90.40;;;;;;5039246;28;20059;-85
2023/07/22 09:25:20;;;;;;;9.80;8.85;;;21.20;90.30;;;;;;5021658;28;20033;-85
2023/07/22 09:27:50;;;;;;;10.60;9.52;;;21.30;90.20;;;;;;5038674;28;20469;-86
2023/07/22 09:30:25;;;;;;;;;;;21.20;90.10;;;;;;5038355;28;20120;-86
2023/07/22 09:32:56;;;;;;;9.65;8.75;;;21.20;90.10;;;;;;5037807;28;20272;-86
2023/07/22 09:35:22;;;;;;;8.68;7.88;;;21.20;89.60;;;;;;5023266;28;20032;-85
2023/07/22 09:37:48;;;;;;;9.65;8.85;;;21.20;89.80;;;;;;5040682;28;20029;-86
2023/07/22 09:40:19;;;;;;;8.43;7.72;;;21.20;88.90;;;;;;5040536;28;20164;-85
2023/07/22 09:42:53;;;;;;;9.25;8.50;;;21.20;88.90;;;;;;5057735;28;20017;-85
2023/07/22 09:45:21;;;;;;;8.65;7.93;;;21.20;89.00;;;;;;5018355;28;20049;-85
2023/07/22 09:47:49;;;;;;;9.77;8.73;;;21.30;89.00;;;;;;5037949;28;20084;-86
2023/07/22 09:50:22;;;;;;;8.48;7.72;;;21.30;89.30;;;;;;5037243;28;20123;-85
2023/07/22 09:52:54;;;;;;;8.10;7.40;;;21.30;88.50;;;;;;5035619;28;20025;-85
2023/07/22 09:55:22;;;;;;;7.75;7.15;;;21.30;88.40;;;;;;5034895;28;20036;-86
2023/07/22 09:57:53;;;;;;;8.27;7.57;;;21.40;88.60;;;;;;5036778;28;20029;-86
2023/07/22 10:00:22;;;;;;;8.80;8.07;;;21.40;88.50;;;;;;5035088;28;20456;-85
2023/07/22 10:02:51;;;;;;;9.43;7.78;;;21.50;88.10;;;;;;5035486;28;20392;-86
2023/07/22 10:05:19;;;;;;;7.93;7.32;;;21.50;88.10;;;;;;5035845;28;20513;-85
2023/07/22 10:07:54;;;;;;;8.25;7.55;;;21.50;87.80;;;;;;5034278;28;20025;-86
2023/07/22 10:10:22;;;;;;;8.23;7.45;;;21.50;87.40;;;;;;5017856;28;20030;-85
2023/07/22 10:12:48;;;;;;;8.05;7.35;;;21.60;87.30;;;;;;5033970;28;20457;-86
2023/07/22 10:15:17;;;;;;;9.45;8.60;;;21.60;87.40;;;;;;5034248;28;20104;-85
2023/07/22 10:17:43;;;;;;;9.40;7.93;;;21.60;86.90;;;;;;5033487;28;20465;-85
2023/07/22 10:20:14;;;;;;;8.95;7.18;;;21.70;86.90;;;;;;5017254;28;20112;-85
2023/07/22 10:22:44;;;;;;;8.02;7.22;;;21.60;87.00;;;;;;5035351;28;20032;-86
2023/07/22 10:25:12;;;;;;;8.93;8.02;;;21.70;86.70;;;;;;5017846;28;20036;-85
2023/07/22 10:27:40;;;;;;;8.05;7.35;;;21.70;86.20;;;;;;5034157;28;20017;-85
2023/07/22 10:30:06;;;;;;;7.80;7.10;;;21.70;85.90;;;;;;5034251;28;20033;-84
2023/07/22 10:32:36;;;;;;;8.55;7.78;;;21.70;85.50;;;;;;5034564;28;20030;-85
2023/07/22 10:35:03;;;;;;;8.17;6.97;;;21.70;85.70;;;;;;5035486;28;20037;-85
2023/07/22 10:37:35;;;;;;;7.32;6.70;;;21.80;85.90;;;;;;5032742;28;20039;-84
2023/07/22 10:40:27;;;;;;;7.20;6.50;;;21.80;85.60;;;;;;5041371;28;20049;-86
2023/07/22 10:42:56;;;;;;;6.93;6.32;;;21.90;85.30;;;;;;5052170;28;20041;-84
2023/07/22 10:45:29;;;;;;;7.63;7.03;;;21.90;85.40;;;;;;5040735;28;20045;-85
2023/07/22 10:48:33;;;;;;;7.32;6.72;;;22.10;85.60;;;;;;5057127;28;20089;-85
2023/07/22 10:51:06;;;;;;;8.02;7.32;;;22.10;85.60;;;;;;5035770;28;20084;-87
2023/07/22 10:53:31;;;;;;;7.78;6.90;;;22.20;85.60;;;;;;5033454;28;20034;-86
2023/07/22 10:56:11;;;;;;;7.82;7.03;;;22.20;85.40;;;;;;5016022;28;20121;-87
2023/07/22 10:58:48;;;;;;;7.97;7.28;;;22.20;85.10;;;;;;5034007;28;20018;-86
2023/07/22 11:01:26;;;;;;;7.63;7.03;;;22.30;85.10;;;;;;5033765;28;20053;-85
2023/07/22 11:04:16;;;;;;;7.38;6.70;;;22.30;84.60;;;;;;5032219;28;20029;-85
2023/07/22 11:06:48;;;;;;;6.80;6.20;;;22.30;84.50;;;;;;5033914;28;20032;-85
2023/07/22 11:09:34;;;;;;;6.90;6.35;;;22.40;84.40;;;;;;5031752;28;20025;-85
2023/07/22 11:12:12;;;;;;;6.82;6.18;;;22.40;84.00;;;;;;5032897;28;20026;-85
2023/07/22 11:14:46;;;;;;;6.43;5.93;;;22.40;83.60;;;;;;5032565;28;20478;-85
2023/07/22 11:17:11;;;;;;;5.95;5.35;;;22.40;83.00;;;;;;5032041;28;20026;-85
2023/07/22 11:19:38;;;;;;;6.13;5.65;;;22.30;83.10;;;;;;5032167;28;20018;-86
2023/07/22 11:22:05;;;;;;;6.25;5.80;;;22.30;82.90;;;;;;5015917;28;20064;-86
2023/07/22 11:24:33;;;;;;;6.40;5.88;;;22.20;83.00;;;;;;5031976;28;20030;-85
2023/07/22 11:26:58;;;;;;;6.25;5.75;;;22.20;83.10;;;;;;5032933;28;20044;-85
2023/07/22 11:29:24;;;;;;;7.18;5.65;;;22.20;83.20;;;;;;5032176;28;20516;-86
2023/07/22 11:31:51;;;;;;;6.38;5.22;;;22.20;83.10;;;;;;5032394;28;20461;-86
2023/07/22 11:34:18;;;;;;;6.68;6.07;;;22.20;83.00;;;;;;5032161;28;20083;-86
2023/07/22 11:36:46;;;;;;;6.15;5.55;;;22.10;82.80;;;;;;5033480;28;20084;-85
2023/07/22 11:39:14;;;;;;;5.63;5.13;;;22.00;82.80;;;;;;5031913;28;20029;-85
2023/07/22 11:41:41;;;;;;;6.20;5.00;;;22.00;82.80;;;;;;5031710;28;20053;-85
2023/07/22 11:44:12;;;;;;;5.72;5.30;;;22.00;82.90;;;;;;5034327;28;20049;-85
2023/07/22 11:46:55;;;;;;;5.68;5.10;;;22.00;83.00;;;;;;5035501;28;20127;-86
2023/07/22 11:49:24;;;;;;;5.53;5.10;;;22.00;83.20;;;;;;5052859;28;20052;-86
2023/07/22 11:51:50;;;;;;;5.13;4.63;;;22.00;83.30;;;;;;5035278;28;20021;-87
2023/07/22 11:54:17;;;;;;;5.53;5.10;;;22.00;83.30;;;;;;5018216;28;20033;-86
2023/07/22 11:56:43;;;;;;;5.25;4.75;;;22.00;83.50;;;;;;5034307;28;20031;-86
2023/07/22 11:59:08;;;;;;;5.03;4.63;;;22.00;83.20;;;;;;5035029;28;20017;-86
2023/07/22 12:01:34;;;;;;;4.82;4.43;;;22.00;83.20;;;;;;5034834;28;20087;-86
2023/07/22 12:04:00;;;;;;;4.90;4.50;;;22.00;83.00;;;;;;5018905;28;20066;-87
2023/07/22 12:06:27;;;;;;;5.80;4.85;;;21.90;83.10;;;;;;5052887;28;20029;-86
2023/07/22 12:08:53;;;;;;;5.68;5.18;;;21.90;83.50;;;;;;5052716;28;20071;-83
2023/07/22 12:11:21;;;;;;;6.22;5.63;;;21.90;83.80;;;;;;5018676;28;20171;-84
2023/07/22 12:13:52;;;;;;;5.50;5.00;;;21.90;83.90;;;;;;5053155;28;20032;-83
2023/07/22 12:16:24;;;;;;;5.78;5.28;;;21.80;83.50;;;;;;5035034;28;20052;-83
2023/07/22 12:18:52;;;;;;;5.57;5.15;;;21.90;83.50;;;;;;5034884;28;20558;-83
2023/07/22 12:21:18;;;;;;;6.22;5.72;;;21.90;83.20;;;;;;5035143;28;20393;-83
2023/07/22 12:23:43;;;;;;;5.47;5.07;;;21.90;83.40;;;;;;5019129;28;20124;-84
2023/07/22 12:26:09;;;;;;;6.32;5.82;;;22.00;83.10;;;;;;5022148;28;20035;-84
2023/07/22 12:28:35;;;;;;;6.43;5.75;;;22.10;82.80;;;;;;5039158;28;20108;-85
2023/07/22 12:31:00;;;;;;;6.03;5.55;;;22.10;82.70;;;;;;5023951;28;20029;-84
2023/07/22 12:33:27;;;;;;;6.10;5.70;;;22.20;82.70;;;;;;5040591;28;20029;-84
2023/07/22 12:35:54;;;;;;;5.45;5.05;;;22.20;82.50;;;;;;5070139;28;20093;-84
2023/07/22 12:38:20;;;;;;;5.70;5.30;;;22.20;82.50;;;;;;5080106;28;20024;-84
2023/07/22 12:40:46;;;;;;;4.82;4.43;;;22.20;82.10;;;;;;5046385;28;20039;-85